Terminal Aerodrome Forecast
Issued by NWS Greer, SC

Current Version | Previous Version | Text Only | Print | Product List | Glossary On
Versions: 1 2 3 4 5 6 7 8 9 10 11 12 13 14 15 16 17 18 19 20 21 22 23 24 25 26 27 28
000
FTUS42 KGSP 261731
TAFAVL
TAF
KAVL 261731Z 2618/2718 27005KT P6SM VCTS BKN050CB
     FM270000 18004KT P6SM BKN045
     FM270800 00000KT 5SM BR BKN045
     FM271200 VRB02KT P6SM SCT040
     FM271500 16004KT P6SM BKN050 PROB30 2715/2718 4SM -TSRA
      BKN045CB=

USA.gov is the U.S. government's official web portal to all federal, state and local government web resources and services.